AFR028 LFPG-KLAX
Flight info
| Callsign | AFR028 |
|---|---|
| Flight time | N/A |
| Altitude | 30000 |
| Route | ATREX UT225 VESAN UL613 SOVAT/N0488F360 DCT LESTA UP6 RODOL UM65 TENSO L603 BELOX DCT GOMUP/M084F360 DCT 59N020W 60N030W 60N040W 60N050W/M084F380 DCT PIDSO/N0492F380 DCT TUNNI DCT 59N080W 56N090W/N0487F400 DCT MUTIV DCT DVL DCT RAP DCT KU54Q DCT BAWER DCT LAKRR Q73 HAKMN ANJLL4 |
| Aircraft | A359/H-SDE2E3GHIJ3J4J5LM1ORWXY/LB1D1 |
Departure
| Time | N/A |
|---|---|
| Airport | Charles de Gaulle International Airport (LFPG) |
Arrival
| Time | 2026-04-22 15:58 |
|---|---|
| Airport | Los Angeles International Airport (KLAX) |
| Time | Latitude | Longitude | Altitude | Speed | Heading |
|---|---|---|---|---|---|
| 2026-04-22 15:04 | 36.89384 | -113.25483 | 34073 ft | 428 kts | 232° |
| 2026-04-22 15:05 | 36.85276 | -113.30803 | 34040 ft | 428 kts | 232° |
| 2026-04-22 15:05 | 36.81130 | -113.36162 | 34004 ft | 428 kts | 232° |
| 2026-04-22 15:06 | 36.76986 | -113.41510 | 33967 ft | 428 kts | 232° |
| 2026-04-22 15:06 | 36.72840 | -113.46851 | 33996 ft | 428 kts | 232° |
| 2026-04-22 15:07 | 36.68695 | -113.52185 | 33971 ft | 429 kts | 232° |
| 2026-04-22 15:07 | 36.64544 | -113.57516 | 33966 ft | 429 kts | 232° |
| 2026-04-22 15:08 | 36.60408 | -113.62818 | 33961 ft | 429 kts | 232° |
| 2026-04-22 15:08 | 36.56245 | -113.68147 | 33957 ft | 429 kts | 232° |
| 2026-04-22 15:09 | 36.52423 | -113.73032 | 33958 ft | 429 kts | 232° |
| 2026-04-22 15:09 | 36.48265 | -113.78335 | 33966 ft | 427 kts | 232° |
| 2026-04-22 15:10 | 36.44122 | -113.83612 | 33958 ft | 426 kts | 232° |
| 2026-04-22 15:10 | 36.40006 | -113.88849 | 33948 ft | 427 kts | 232° |
| 2026-04-22 15:11 | 36.35823 | -113.94164 | 33953 ft | 428 kts | 232° |
| 2026-04-22 15:11 | 36.31680 | -113.99414 | 33946 ft | 428 kts | 232° |
| 2026-04-22 15:12 | 36.27502 | -114.04702 | 33938 ft | 428 kts | 232° |
| 2026-04-22 15:12 | 36.23331 | -114.09970 | 33948 ft | 428 kts | 232° |
| 2026-04-22 15:13 | 36.19157 | -114.15238 | 33950 ft | 428 kts | 232° |
| 2026-04-22 15:13 | 36.15008 | -114.20461 | 33949 ft | 428 kts | 232° |
| 2026-04-22 15:14 | 36.10822 | -114.25726 | 33945 ft | 428 kts | 232° |
| 2026-04-22 15:14 | 36.06662 | -114.31010 | 33935 ft | 429 kts | 233° |
| 2026-04-22 15:15 | 36.02690 | -114.36527 | 33943 ft | 428 kts | 235° |
| 2026-04-22 15:15 | 35.99169 | -114.41520 | 33951 ft | 428 kts | 235° |
| 2026-04-22 15:16 | 35.95257 | -114.46995 | 33967 ft | 428 kts | 234° |
| 2026-04-22 15:16 | 35.91290 | -114.52485 | 33986 ft | 428 kts | 234° |
| 2026-04-22 15:17 | 35.87318 | -114.57956 | 34003 ft | 428 kts | 234° |
| 2026-04-22 15:17 | 35.83380 | -114.63364 | 33955 ft | 416 kts | 234° |
| 2026-04-22 15:18 | 35.79538 | -114.68632 | 33984 ft | 411 kts | 234° |
| 2026-04-22 15:18 | 35.75727 | -114.73868 | 33980 ft | 411 kts | 234° |
| 2026-04-22 15:19 | 35.71830 | -114.79213 | 34008 ft | 411 kts | 234° |
| 2026-04-22 15:19 | 35.68006 | -114.84446 | 34014 ft | 411 kts | 234° |
| 2026-04-22 15:20 | 35.64184 | -114.89675 | 34015 ft | 411 kts | 234° |
| 2026-04-22 15:20 | 35.60387 | -114.94869 | 34014 ft | 411 kts | 234° |
| 2026-04-22 15:21 | 35.56564 | -115.00090 | 34017 ft | 411 kts | 234° |
| 2026-04-22 15:21 | 35.52738 | -115.05309 | 34032 ft | 411 kts | 234° |
| 2026-04-22 15:22 | 35.48899 | -115.10502 | 34036 ft | 412 kts | 233° |
| 2026-04-22 15:22 | 35.44962 | -115.15615 | 34026 ft | 412 kts | 233° |
| 2026-04-22 15:23 | 35.44297 | -115.16479 | 34042 ft | 412 kts | 233° |
| 2026-04-22 15:23 | 35.37431 | -115.25415 | 34065 ft | 415 kts | 233° |
| 2026-04-22 15:24 | 35.33473 | -115.30566 | 34085 ft | 415 kts | 233° |
| 2026-04-22 15:24 | 35.29509 | -115.35720 | 34075 ft | 418 kts | 232° |
| 2026-04-22 15:25 | 35.25508 | -115.40914 | 34099 ft | 420 kts | 232° |
| 2026-04-22 15:25 | 35.21488 | -115.46120 | 34099 ft | 421 kts | 232° |
| 2026-04-22 15:26 | 35.17464 | -115.51325 | 34097 ft | 421 kts | 232° |
| 2026-04-22 15:26 | 35.13440 | -115.56524 | 34110 ft | 421 kts | 232° |
| 2026-04-22 15:27 | 35.09408 | -115.61712 | 34113 ft | 423 kts | 232° |
| 2026-04-22 15:27 | 35.05353 | -115.66893 | 34114 ft | 424 kts | 231° |
| 2026-04-22 15:28 | 35.01268 | -115.72103 | 34116 ft | 424 kts | 231° |
| 2026-04-22 15:28 | 34.97184 | -115.77308 | 34115 ft | 424 kts | 231° |
| 2026-04-22 15:29 | 34.93100 | -115.82507 | 34108 ft | 424 kts | 231° |
| 2026-04-22 15:30 | 34.86993 | -115.90267 | 34113 ft | 424 kts | 231° |
| 2026-04-22 15:30 | 34.82907 | -115.95449 | 34118 ft | 424 kts | 231° |
| 2026-04-22 15:31 | 34.78821 | -116.00623 | 34104 ft | 424 kts | 231° |
| 2026-04-22 15:31 | 34.74741 | -116.05810 | 34103 ft | 425 kts | 231° |
| 2026-04-22 15:32 | 34.70657 | -116.11014 | 34102 ft | 425 kts | 231° |
| 2026-04-22 15:32 | 34.66564 | -116.16221 | 34099 ft | 425 kts | 231° |
| 2026-04-22 15:33 | 34.62478 | -116.21410 | 34101 ft | 425 kts | 231° |
| 2026-04-22 15:33 | 34.58389 | -116.26596 | 34080 ft | 425 kts | 231° |
| 2026-04-22 15:34 | 34.54311 | -116.31760 | 34106 ft | 427 kts | 231° |
| 2026-04-22 15:34 | 34.50196 | -116.36961 | 34013 ft | 424 kts | 231° |
| 2026-04-22 15:34 | 34.48180 | -116.39500 | 33927 ft | 409 kts | 231° |
| 2026-04-22 15:35 | 34.46856 | -116.41167 | 33664 ft | 404 kts | 231° |
| 2026-04-22 15:35 | 34.44286 | -116.44412 | 32397 ft | 399 kts | 231° |
| 2026-04-22 15:35 | 34.42478 | -116.46907 | 31662 ft | 390 kts | 236° |
| 2026-04-22 15:35 | 34.40954 | -116.49620 | 31182 ft | 389 kts | 243° |
| 2026-04-22 15:36 | 34.39692 | -116.52492 | 30817 ft | 380 kts | 246° |
| 2026-04-22 15:36 | 34.38517 | -116.55352 | 30674 ft | 379 kts | 246° |
| 2026-04-22 15:36 | 34.37348 | -116.58211 | 30502 ft | 380 kts | 246° |
| 2026-04-22 15:36 | 34.36174 | -116.61074 | 30355 ft | 380 kts | 246° |
| 2026-04-22 15:37 | 34.34995 | -116.63938 | 30139 ft | 380 kts | 246° |
| 2026-04-22 15:37 | 34.33812 | -116.66805 | 29608 ft | 379 kts | 246° |
| 2026-04-22 15:37 | 34.32645 | -116.69655 | 28952 ft | 378 kts | 246° |
| 2026-04-22 15:37 | 34.31502 | -116.72502 | 28404 ft | 374 kts | 246° |
| 2026-04-22 15:38 | 34.30373 | -116.75323 | 27910 ft | 370 kts | 246° |
| 2026-04-22 15:38 | 34.28148 | -116.80865 | 26906 ft | 363 kts | 246° |
| 2026-04-22 15:38 | 34.27044 | -116.83605 | 26394 ft | 360 kts | 246° |
| 2026-04-22 15:39 | 34.25953 | -116.86309 | 25903 ft | 357 kts | 246° |
| 2026-04-22 15:39 | 34.24869 | -116.88995 | 25412 ft | 354 kts | 246° |
| 2026-04-22 15:39 | 34.23793 | -116.91660 | 24910 ft | 352 kts | 246° |
| 2026-04-22 15:39 | 34.22718 | -116.94319 | 24400 ft | 350 kts | 246° |
| 2026-04-22 15:40 | 34.21659 | -116.96945 | 23900 ft | 348 kts | 246° |
| 2026-04-22 15:40 | 34.20745 | -116.99653 | 23355 ft | 345 kts | 251° |
| 2026-04-22 15:40 | 34.19999 | -117.02359 | 22829 ft | 343 kts | 252° |
| 2026-04-22 15:40 | 34.19267 | -117.05085 | 22318 ft | 339 kts | 252° |
| 2026-04-22 15:41 | 34.18543 | -117.07777 | 21814 ft | 336 kts | 253° |
| 2026-04-22 15:41 | 34.17822 | -117.10448 | 21332 ft | 332 kts | 252° |
| 2026-04-22 15:41 | 34.17107 | -117.13089 | 20846 ft | 330 kts | 252° |
| 2026-04-22 15:41 | 34.16396 | -117.15719 | 20346 ft | 328 kts | 253° |
| 2026-04-22 15:42 | 34.15689 | -117.18333 | 19851 ft | 327 kts | 252° |
| 2026-04-22 15:42 | 34.14971 | -117.20938 | 19432 ft | 326 kts | 252° |
| 2026-04-22 15:42 | 34.14255 | -117.23530 | 18936 ft | 324 kts | 252° |
| 2026-04-22 15:42 | 34.13542 | -117.26111 | 18427 ft | 323 kts | 252° |
| 2026-04-22 15:43 | 34.12836 | -117.28668 | 17892 ft | 320 kts | 252° |
| 2026-04-22 15:43 | 34.12133 | -117.31213 | 17298 ft | 320 kts | 253° |
| 2026-04-22 15:43 | 34.11427 | -117.33768 | 16705 ft | 319 kts | 253° |
| 2026-04-22 15:43 | 34.10729 | -117.36293 | 16195 ft | 316 kts | 253° |
| 2026-04-22 15:44 | 34.10059 | -117.38774 | 15713 ft | 313 kts | 254° |
| 2026-04-22 15:44 | 34.09436 | -117.41274 | 15220 ft | 310 kts | 255° |
| 2026-04-22 15:44 | 34.08830 | -117.43741 | 14941 ft | 301 kts | 255° |
| 2026-04-22 15:44 | 34.08241 | -117.46118 | 14679 ft | 293 kts | 255° |
| 2026-04-22 15:45 | 34.07654 | -117.48476 | 14247 ft | 293 kts | 255° |
| 2026-04-22 15:45 | 34.07069 | -117.50824 | 13801 ft | 292 kts | 255° |
| 2026-04-22 15:45 | 34.06477 | -117.53170 | 13413 ft | 293 kts | 255° |
| 2026-04-22 15:45 | 34.05873 | -117.55527 | 13032 ft | 293 kts | 255° |
| 2026-04-22 15:46 | 34.05271 | -117.57873 | 12635 ft | 292 kts | 255° |
| 2026-04-22 15:46 | 34.04671 | -117.60216 | 12256 ft | 292 kts | 255° |
| 2026-04-22 15:46 | 34.04074 | -117.62545 | 11871 ft | 291 kts | 255° |
| 2026-04-22 15:46 | 34.03475 | -117.64882 | 11491 ft | 290 kts | 255° |
| 2026-04-22 15:47 | 34.02886 | -117.67178 | 11119 ft | 289 kts | 255° |
| 2026-04-22 15:47 | 34.02319 | -117.69497 | 10723 ft | 288 kts | 258° |
| 2026-04-22 15:47 | 34.01989 | -117.71864 | 10404 ft | 281 kts | 264° |
| 2026-04-22 15:47 | 34.01770 | -117.74108 | 10133 ft | 259 kts | 265° |
| 2026-04-22 15:48 | 34.01566 | -117.76290 | 9687 ft | 264 kts | 265° |
| 2026-04-22 15:48 | 34.01360 | -117.78476 | 9259 ft | 262 kts | 265° |
| 2026-04-22 15:48 | 34.01152 | -117.80654 | 8883 ft | 261 kts | 265° |
| 2026-04-22 15:48 | 34.00941 | -117.82828 | 8552 ft | 261 kts | 265° |
| 2026-04-22 15:49 | 34.00730 | -117.85005 | 8215 ft | 261 kts | 265° |
| 2026-04-22 15:49 | 34.00521 | -117.87181 | 7868 ft | 261 kts | 265° |
| 2026-04-22 15:49 | 34.00305 | -117.89358 | 7524 ft | 261 kts | 264° |
| 2026-04-22 15:49 | 34.00330 | -117.91523 | 7143 ft | 257 kts | 282° |
| 2026-04-22 15:50 | 34.00552 | -117.93681 | 6853 ft | 261 kts | 273° |
| 2026-04-22 15:50 | 34.00536 | -117.95869 | 6502 ft | 260 kts | 269° |
| 2026-04-22 15:50 | 34.00425 | -117.98048 | 6105 ft | 260 kts | 266° |
| 2026-04-22 15:50 | 34.00247 | -118.00186 | 5868 ft | 260 kts | 264° |
| 2026-04-22 15:51 | 34.00001 | -118.02354 | 5609 ft | 261 kts | 262° |
| 2026-04-22 15:51 | 33.99690 | -118.04500 | 5269 ft | 260 kts | 259° |
| 2026-04-22 15:51 | 33.99314 | -118.06634 | 4873 ft | 260 kts | 257° |
| 2026-04-22 15:51 | 33.98875 | -118.08749 | 4432 ft | 258 kts | 255° |
| 2026-04-22 15:52 | 33.98391 | -118.10751 | 4142 ft | 240 kts | 252° |
| 2026-04-22 15:52 | 33.97940 | -118.12616 | 3944 ft | 224 kts | 256° |
| 2026-04-22 15:52 | 33.97629 | -118.14391 | 3724 ft | 208 kts | 261° |
| 2026-04-22 15:52 | 33.97457 | -118.16047 | 3583 ft | 190 kts | 264° |
| 2026-04-22 15:53 | 33.97367 | -118.17599 | 3433 ft | 180 kts | 267° |
| 2026-04-22 15:53 | 33.97309 | -118.19055 | 3272 ft | 169 kts | 266° |
| 2026-04-22 15:53 | 33.97239 | -118.20423 | 3128 ft | 159 kts | 265° |
| 2026-04-22 15:53 | 33.97142 | -118.21716 | 3009 ft | 149 kts | 263° |
| 2026-04-22 15:54 | 33.97023 | -118.22927 | 2973 ft | 144 kts | 262° |
| 2026-04-22 15:54 | 33.96880 | -118.24091 | 2814 ft | 140 kts | 260° |
| 2026-04-22 15:54 | 33.96745 | -118.25242 | 2622 ft | 138 kts | 262° |
| 2026-04-22 15:54 | 33.96629 | -118.26391 | 2444 ft | 138 kts | 262° |
| 2026-04-22 15:55 | 33.96511 | -118.27547 | 2256 ft | 137 kts | 262° |
| 2026-04-22 15:55 | 33.96395 | -118.28673 | 2067 ft | 137 kts | 262° |
| 2026-04-22 15:55 | 33.96278 | -118.29809 | 1885 ft | 137 kts | 262° |
| 2026-04-22 15:55 | 33.96161 | -118.30947 | 1694 ft | 136 kts | 262° |
| 2026-04-22 15:56 | 33.96045 | -118.32077 | 1507 ft | 136 kts | 263° |
| 2026-04-22 15:56 | 33.95929 | -118.33209 | 1323 ft | 136 kts | 263° |
| 2026-04-22 15:56 | 33.95852 | -118.33960 | 1196 ft | 135 kts | 263° |
| 2026-04-22 15:56 | 33.95736 | -118.35085 | 1022 ft | 135 kts | 263° |
| 2026-04-22 15:57 | 33.95621 | -118.36208 | 827 ft | 135 kts | 263° |
| 2026-04-22 15:57 | 33.95507 | -118.37321 | 651 ft | 133 kts | 263° |
| 2026-04-22 15:57 | 33.95394 | -118.38412 | 458 ft | 130 kts | 263° |
| 2026-04-22 15:57 | 33.95283 | -118.39491 | 277 ft | 129 kts | 262° |
| 2026-04-22 15:58 | 33.95174 | -118.40559 | 122 ft | 125 kts | 262° |
| 2026-04-22 15:58 | 33.95081 | -118.41462 | 113 ft | 86 kts | 263° |
| 2026-04-22 15:58 | 33.95027 | -118.41991 | 114 ft | 52 kts | 263° |
| 2026-04-22 15:58 | 33.94982 | -118.42380 | 113 ft | 40 kts | 254° |
| 2026-04-22 15:59 | 33.94887 | -118.42630 | 108 ft | 7 kts | 232° |
| 2026-04-22 15:59 | 33.94881 | -118.42638 | 108 ft | 5 kts | 232° |
| 2026-04-22 15:59 | 33.94851 | -118.42677 | 108 ft | 0 kts | 225° |
| 2026-04-22 16:01 | 33.94825 | -118.42707 | 110 ft | 9 kts | 221° |
| 2026-04-22 16:01 | 33.94754 | -118.42760 | 112 ft | 14 kts | 202° |
| 2026-04-22 16:01 | 33.94648 | -118.42770 | 106 ft | 12 kts | 155° |
| 2026-04-22 16:01 | 33.94633 | -118.42707 | 105 ft | 11 kts | 88° |
| 2026-04-22 16:02 | 33.94647 | -118.42589 | 106 ft | 16 kts | 82° |
| 2026-04-22 16:02 | 33.94662 | -118.42441 | 105 ft | 19 kts | 83° |
| 2026-04-22 16:02 | 33.94680 | -118.42265 | 105 ft | 23 kts | 83° |
| 2026-04-22 16:02 | 33.94700 | -118.42063 | 105 ft | 25 kts | 83° |
| 2026-04-22 16:03 | 33.94716 | -118.41901 | 104 ft | 20 kts | 88° |
| 2026-04-22 16:03 | 33.94645 | -118.41817 | 103 ft | 12 kts | 174° |
| 2026-04-22 16:03 | 33.94549 | -118.41805 | 103 ft | 16 kts | 174° |
| 2026-04-22 16:03 | 33.94429 | -118.41788 | 102 ft | 19 kts | 173° |
| 2026-04-22 16:04 | 33.94369 | -118.41761 | 102 ft | 8 kts | 133° |
| 2026-04-22 16:04 | 33.94345 | -118.41688 | 101 ft | 11 kts | 106° |
| 2026-04-22 16:04 | 33.94342 | -118.41632 | 104 ft | 0 kts | 88° |
| 2026-04-22 16:04 | 33.94343 | -118.41626 | 102 ft | 4 kts | 82° |
| 2026-04-22 16:05 | 33.94344 | -118.41621 | 102 ft | 1 kts | 82° |
| 2026-04-22 16:05 | 33.94345 | -118.41609 | 101 ft | 0 kts | 82° |
| 2026-04-22 16:05 | 33.94347 | -118.41598 | 101 ft | 3 kts | 82° |
| 2026-04-22 16:05 | 33.94348 | -118.41589 | 102 ft | 0 kts | 83° |